Mount Hulda, Missouri
Current Conditions -  °F | °C
As of 5:53 AM on Thursday 23 Oct 2014 (Local Time) from KDMO Reporting Station
Broken Clouds Broken Clouds  
Wind Chill: 55°   Ceiling: 5000
Heat Index: 55°   Visibility: 10mi
Dew Point: 46°   Wind: 10mph
Humidity: 72%   Direction: 180°S
Pressure: 30.15"   Gusts: NA
Location:  38.4446°N, 93.178°W
Report Text: KDMO 231053Z AUTO 18009KT 10SM FEW038 BKN050 BKN060 13/08 A3015 RMK AO2 SLP206 T01280078
Loading
Personal Weather Stations






























Interactive Weather Map
Tropical Storm Tracking
New forecast layout! Learn more

10-Day Weather Forecast

Advertisements
Track Severe Weather on mobile